createdAt,value
2022-11-09T00:00:55.361Z,2.6
2022-11-09T00:02:03.705Z,2.6
2022-11-09T00:03:12.280Z,2.6
2022-11-09T00:04:20.631Z,2.6
2022-11-09T00:05:28.985Z,2.6
2022-11-09T00:06:37.596Z,2.5
2022-11-09T00:07:45.842Z,2.5
2022-11-09T00:08:54.187Z,2.5
2022-11-09T00:10:02.792Z,2.6
2022-11-09T00:11:11.059Z,2.6
2022-11-09T00:12:19.398Z,2.6
2022-11-09T00:13:27.948Z,2.4
2022-11-09T00:14:36.275Z,2.4
2022-11-09T00:15:44.632Z,2.4
2022-11-09T00:16:53.198Z,2.9
2022-11-09T00:18:01.540Z,2.9
2022-11-09T00:19:09.890Z,2.9
2022-11-09T00:20:18.431Z,2.3
2022-11-09T00:21:26.829Z,2.3
2022-11-09T00:22:35.141Z,2.3
2022-11-09T00:23:43.742Z,2.5
2022-11-09T00:24:52.082Z,2.5
2022-11-09T00:26:00.424Z,2.5
2022-11-09T00:27:09.774Z,2.2
2022-11-09T00:28:17.355Z,2.2
2022-11-09T00:29:25.700Z,2.2
2022-11-09T00:30:34.233Z,2.4
2022-11-09T00:31:42.601Z,2.4
2022-11-09T00:32:50.964Z,2.4
2022-11-09T00:33:59.495Z,2.2
2022-11-09T00:35:07.858Z,2.2
2022-11-09T00:36:16.195Z,2.2
2022-11-09T00:37:24.958Z,2
2022-11-09T00:38:33.153Z,2
2022-11-09T00:39:41.471Z,2
2022-11-09T00:40:50.010Z,2.5
2022-11-09T00:41:58.363Z,2.5
2022-11-09T00:43:06.706Z,2.5
2022-11-09T00:44:15.283Z,2.3
2022-11-09T00:45:23.619Z,2.3
2022-11-09T00:46:31.951Z,2.3
2022-11-09T00:47:40.506Z,2.1
2022-11-09T00:48:48.857Z,2.1
2022-11-09T00:49:57.231Z,2.1
2022-11-09T00:51:05.791Z,2.4
2022-11-09T00:52:14.126Z,2.4
2022-11-09T00:53:22.552Z,2.4
2022-11-09T00:54:31.008Z,2.2
2022-11-09T00:55:39.346Z,2.2
2022-11-09T00:56:47.705Z,2.2
2022-11-09T00:57:56.262Z,2.3
2022-11-09T00:59:04.627Z,2.3
2022-11-09T01:00:12.978Z,2.3
2022-11-09T01:01:21.581Z,2.4
2022-11-09T01:02:29.852Z,2.4
2022-11-09T01:03:38.237Z,2.4
2022-11-09T01:04:46.779Z,2.1
2022-11-09T01:05:55.121Z,2.1
2022-11-09T01:07:03.536Z,2.1
2022-11-09T01:08:11.999Z,2.2
2022-11-09T01:09:20.370Z,2.2
2022-11-09T01:10:28.680Z,2.2
2022-11-09T01:11:37.241Z,2.5
2022-11-09T01:12:45.580Z,2.5
2022-11-09T01:13:53.916Z,2.5
2022-11-09T01:15:02.471Z,2.1
2022-11-09T01:16:10.835Z,2.1
2022-11-09T01:17:19.179Z,2.1
2022-11-09T01:18:27.788Z,2
2022-11-09T01:19:36.109Z,2
2022-11-09T01:20:44.476Z,2
2022-11-09T01:21:53.024Z,2
2022-11-09T01:23:01.395Z,2
2022-11-09T01:24:09.768Z,2
2022-11-09T01:25:18.336Z,2.2
2022-11-09T01:26:26.684Z,2.2
2022-11-09T01:27:35.028Z,2.2
2022-11-09T01:28:43.583Z,2.4
2022-11-09T01:29:51.927Z,2.4
2022-11-09T01:31:00.267Z,2.4
2022-11-09T01:32:08.811Z,2.4
2022-11-09T01:33:17.450Z,2.4
2022-11-09T01:34:25.537Z,2.4
2022-11-09T01:35:34.069Z,2.3
2022-11-09T01:36:42.407Z,2.3
2022-11-09T01:37:50.786Z,2.3
2022-11-09T01:38:59.385Z,2.4
2022-11-09T01:40:07.708Z,2.4
2022-11-09T01:41:16.066Z,2.4
2022-11-09T01:42:24.589Z,2.2
2022-11-09T01:43:32.929Z,2.2
2022-11-09T01:44:41.269Z,2.2
2022-11-09T01:45:49.805Z,2.3
2022-11-09T01:46:58.163Z,2.3
2022-11-09T01:48:06.510Z,2.3
2022-11-09T01:49:15.056Z,2.7
2022-11-09T01:50:23.396Z,2.7
2022-11-09T01:51:31.754Z,2.7
2022-11-09T01:52:40.305Z,2.3
2022-11-09T01:53:48.667Z,2.3
2022-11-09T01:54:57.011Z,2.3
2022-11-09T01:56:05.555Z,2.5
2022-11-09T01:57:13.918Z,2.5
2022-11-09T01:58:22.242Z,2.5
2022-11-09T01:59:30.786Z,2.3
2022-11-09T02:00:39.108Z,2.3
2022-11-09T02:01:47.497Z,2.3
2022-11-09T02:02:56.015Z,2.5
2022-11-09T02:04:04.398Z,2.5
2022-11-09T02:05:12.778Z,2.5
2022-11-09T02:06:21.311Z,2.6
2022-11-09T02:07:29.654Z,2.6
2022-11-09T02:08:38.034Z,2.6
2022-11-09T02:09:46.587Z,2.6
2022-11-09T02:10:54.940Z,2.6
2022-11-09T02:12:03.282Z,2.6
2022-11-09T02:13:11.899Z,2.7
2022-11-09T02:14:20.271Z,2.7
2022-11-09T02:15:28.586Z,2.7
2022-11-09T02:16:37.131Z,2.3
2022-11-09T02:17:45.467Z,2.3
2022-11-09T02:18:53.809Z,2.3
2022-11-09T02:20:02.399Z,2.7
2022-11-09T02:21:10.743Z,2.7
2022-11-09T02:22:19.108Z,2.7
2022-11-09T02:23:27.660Z,2.7
2022-11-09T02:24:35.992Z,2.7
2022-11-09T02:25:44.326Z,2.7
2022-11-09T02:26:52.900Z,3
2022-11-09T02:28:01.262Z,3
2022-11-09T02:29:09.633Z,3
2022-11-09T02:30:18.159Z,2.7
2022-11-09T02:31:26.501Z,2.7
2022-11-09T02:32:34.837Z,2.7
2022-11-09T02:33:43.403Z,2.5
2022-11-09T02:34:51.738Z,2.5
2022-11-09T02:36:00.092Z,2.5
2022-11-09T02:37:08.618Z,2.5
2022-11-09T02:38:16.963Z,2.5
2022-11-09T02:39:25.299Z,2.5
2022-11-09T02:40:33.844Z,2.4
2022-11-09T02:41:42.227Z,2.4
2022-11-09T02:42:50.584Z,2.4
2022-11-09T02:43:59.157Z,3
2022-11-09T02:45:07.523Z,3
2022-11-09T02:46:15.855Z,3
2022-11-09T02:47:24.388Z,2.4
2022-11-09T02:48:32.737Z,2.4
2022-11-09T02:49:41.100Z,2.4
2022-11-09T02:50:49.636Z,2.9
2022-11-09T02:51:57.973Z,2.9
2022-11-09T02:53:06.321Z,2.9
2022-11-09T02:54:14.862Z,2.7
2022-11-09T02:55:23.228Z,2.7
2022-11-09T02:56:31.557Z,2.7
2022-11-09T02:57:40.106Z,2.8
2022-11-09T02:58:48.442Z,2.8
2022-11-09T02:59:56.768Z,2.8
2022-11-09T03:01:05.354Z,2.6
2022-11-09T03:02:13.650Z,2.6
2022-11-09T03:03:22.240Z,2.6
2022-11-09T03:04:30.538Z,2.4
2022-11-09T03:05:38.867Z,2.4
2022-11-09T03:06:47.225Z,2.4
2022-11-09T03:07:55.754Z,2.9
2022-11-09T03:09:04.112Z,2.9
2022-11-09T03:10:12.464Z,2.9
2022-11-09T03:11:21.007Z,3
2022-11-09T03:12:29.362Z,3
2022-11-09T03:13:37.684Z,3
2022-11-09T03:14:46.228Z,2.9
2022-11-09T03:15:54.576Z,2.9
2022-11-09T03:17:02.925Z,2.9
2022-11-09T03:18:11.457Z,2.8
2022-11-09T03:19:19.800Z,2.8
2022-11-09T03:20:28.130Z,2.8
2022-11-09T03:21:36.671Z,3
2022-11-09T03:22:45.009Z,3
2022-11-09T03:23:53.341Z,3
2022-11-09T03:25:01.908Z,2.9
2022-11-09T03:26:10.227Z,2.9
2022-11-09T03:27:18.579Z,2.9
2022-11-09T03:28:27.121Z,2.9
2022-11-09T03:29:35.461Z,2.9
2022-11-09T03:30:43.832Z,2.9
2022-11-09T03:31:52.393Z,3
2022-11-09T03:33:00.802Z,3
2022-11-09T03:34:09.058Z,3
2022-11-09T03:35:17.615Z,3.4
2022-11-09T03:36:25.968Z,3.4
2022-11-09T03:37:34.366Z,3.4
2022-11-09T03:38:42.859Z,3.4
2022-11-09T03:39:51.193Z,3.4
2022-11-09T03:40:59.528Z,3.4
2022-11-09T03:42:08.083Z,3.2
2022-11-09T03:43:16.509Z,3.2
2022-11-09T03:44:24.816Z,3.2
2022-11-09T03:45:33.338Z,3.5
2022-11-09T03:46:41.682Z,3.5
2022-11-09T03:47:50.008Z,3.5
2022-11-09T03:48:58.573Z,3.3
2022-11-09T03:50:06.904Z,3.3
2022-11-09T03:51:15.229Z,3.3
2022-11-09T03:52:23.791Z,3.3
2022-11-09T03:53:32.118Z,3.3
2022-11-09T03:54:40.450Z,3.3
2022-11-09T03:55:48.990Z,3.5
2022-11-09T03:56:57.364Z,3.5
2022-11-09T03:58:05.696Z,3.5
2022-11-09T03:59:14.238Z,3.4
2022-11-09T04:00:22.581Z,3.4
2022-11-09T04:01:30.963Z,3.4
2022-11-09T04:02:39.480Z,3.4
2022-11-09T04:03:47.805Z,3.4
2022-11-09T04:04:56.167Z,3.4
2022-11-09T04:06:04.685Z,3.3
2022-11-09T04:07:13.099Z,3.3
2022-11-09T04:08:21.370Z,3.3
2022-11-09T04:09:29.905Z,3.6
2022-11-09T04:10:38.234Z,3.6
2022-11-09T04:11:46.576Z,3.6
2022-11-09T04:12:55.108Z,3.5
2022-11-09T04:14:03.450Z,3.5
2022-11-09T04:15:11.776Z,3.5
2022-11-09T04:16:20.336Z,3.8
2022-11-09T04:17:28.688Z,3.8
2022-11-09T04:18:37.036Z,3.8
2022-11-09T04:19:45.572Z,3.6
2022-11-09T04:20:53.917Z,3.6
2022-11-09T04:22:02.262Z,3.6
2022-11-09T04:23:10.802Z,3.5
2022-11-09T04:24:19.139Z,3.5
2022-11-09T04:25:27.485Z,3.5
2022-11-09T04:26:36.058Z,3.3
2022-11-09T04:27:44.409Z,3.3
2022-11-09T04:28:52.789Z,3.3
2022-11-09T04:30:01.337Z,3.9
2022-11-09T04:31:09.672Z,3.9
2022-11-09T04:32:18.023Z,3.9
2022-11-09T04:33:26.619Z,3.5
2022-11-09T04:34:34.976Z,3.5
2022-11-09T04:35:43.313Z,3.5
2022-11-09T04:36:51.911Z,3.7
2022-11-09T04:38:00.222Z,3.7
2022-11-09T04:39:08.585Z,3.7
2022-11-09T04:40:17.131Z,3.4
2022-11-09T04:41:25.471Z,3.4
2022-11-09T04:42:33.813Z,3.4
2022-11-09T04:43:42.422Z,3.7
2022-11-09T04:44:50.768Z,3.7
2022-11-09T04:45:59.130Z,3.7
2022-11-09T04:47:07.691Z,3.6
2022-11-09T04:48:16.029Z,3.6
2022-11-09T04:49:24.380Z,3.6
2022-11-09T04:50:32.911Z,5
2022-11-09T04:51:41.275Z,5
2022-11-09T04:52:49.626Z,5
2022-11-09T04:53:58.168Z,3.9
2022-11-09T04:55:06.511Z,3.9
2022-11-09T04:56:14.858Z,3.9
2022-11-09T04:57:23.428Z,4.1
2022-11-09T04:58:31.786Z,4.1
2022-11-09T04:59:40.117Z,4.1
2022-11-09T05:00:48.684Z,4.4
2022-11-09T05:01:57.038Z,4.4
2022-11-09T05:03:05.369Z,4.4
2022-11-09T05:04:14.025Z,4.6
2022-11-09T05:05:22.322Z,4.6
2022-11-09T05:06:30.715Z,4.6
2022-11-09T05:07:39.220Z,4.7
2022-11-09T05:08:47.591Z,4.7
2022-11-09T05:09:55.910Z,4.7
2022-11-09T05:11:04.457Z,5.2
2022-11-09T05:12:12.814Z,5.2
2022-11-09T05:13:21.595Z,5.2
2022-11-09T05:14:29.736Z,5.1
2022-11-09T05:15:38.071Z,5.1
2022-11-09T05:16:46.439Z,5.1
2022-11-09T05:17:54.986Z,5.4
2022-11-09T05:19:03.674Z,5.4
2022-11-09T05:20:12.004Z,5.4
2022-11-09T05:21:20.562Z,5
2022-11-09T05:22:28.927Z,5
2022-11-09T05:23:37.300Z,5
2022-11-09T05:24:45.994Z,4.6
2022-11-09T05:25:54.196Z,4.6
2022-11-09T05:27:02.556Z,4.6
2022-11-09T05:28:11.132Z,4.4
2022-11-09T05:29:19.452Z,4.4
2022-11-09T05:30:28.692Z,4.4
2022-11-09T05:31:37.237Z,5.7
2022-11-09T05:32:45.637Z,5.7
2022-11-09T05:33:53.972Z,5.7
2022-11-09T05:35:02.523Z,5.3
2022-11-09T05:36:10.871Z,5.3
2022-11-09T05:37:19.215Z,5.3
2022-11-09T05:38:27.779Z,5.2
2022-11-09T05:39:36.126Z,5.2
2022-11-09T05:40:44.509Z,5.2
2022-11-09T05:41:53.039Z,5.8
2022-11-09T05:43:01.380Z,5.8
2022-11-09T05:44:09.747Z,5.8
2022-11-09T05:45:41.282Z,5.6
2022-11-09T05:46:26.616Z,5.6
2022-11-09T05:47:34.963Z,5.6
2022-11-09T05:48:43.508Z,6
2022-11-09T05:49:51.834Z,6
2022-11-09T05:51:00.184Z,6
2022-11-09T05:52:08.742Z,5.9
2022-11-09T05:53:17.259Z,5.9
2022-11-09T05:54:25.443Z,5.9
2022-11-09T05:55:34.010Z,6.2
2022-11-09T05:56:42.386Z,6.2
2022-11-09T05:57:50.698Z,6.2
2022-11-09T05:58:59.244Z,5.9
2022-11-09T06:00:10.906Z,5.9
2022-11-09T06:01:15.921Z,5.9
2022-11-09T06:02:24.557Z,6.2
2022-11-09T06:03:32.828Z,6.2
2022-11-09T06:04:41.167Z,6.2
2022-11-09T06:05:49.750Z,5.8
2022-11-09T06:06:58.203Z,5.8
2022-11-09T06:08:06.443Z,5.8
2022-11-09T06:09:15.024Z,6.3
2022-11-09T06:10:23.380Z,6.3
2022-11-09T06:11:31.722Z,6.3
2022-11-09T06:12:40.328Z,6.2
2022-11-09T06:13:48.612Z,6.2
2022-11-09T06:14:56.947Z,6.2
2022-11-09T06:16:05.510Z,6
2022-11-09T06:17:13.870Z,6
2022-11-09T06:18:22.211Z,6
2022-11-09T06:19:30.764Z,6.1
2022-11-09T06:20:39.177Z,6.1
2022-11-09T06:21:47.520Z,6.1
2022-11-09T06:23:00.054Z,6.7
2022-11-09T06:24:04.429Z,6.7
2022-11-09T06:25:12.766Z,6.7
2022-11-09T06:26:21.352Z,7.2
2022-11-09T06:27:29.685Z,7.2
2022-11-09T06:28:38.070Z,7.2
2022-11-09T06:29:46.580Z,6.7
2022-11-09T06:30:54.921Z,6.7
2022-11-09T06:32:03.284Z,6.7
2022-11-09T06:33:11.842Z,6.5
2022-11-09T06:34:20.176Z,6.5
2022-11-09T06:35:28.525Z,6.5
2022-11-09T06:36:37.089Z,7.2
2022-11-09T06:37:45.414Z,7.2
2022-11-09T06:38:53.761Z,7.2
2022-11-09T06:40:02.305Z,8
2022-11-09T06:41:10.703Z,8
2022-11-09T06:42:19.131Z,8
2022-11-09T06:43:27.554Z,20.299999
2022-11-09T06:44:35.919Z,20.299999
2022-11-09T06:45:44.223Z,20.299999
2022-11-09T06:46:52.760Z,8.5
2022-11-09T06:48:01.094Z,8.5
2022-11-09T06:49:09.434Z,8.5
2022-11-09T06:50:18.049Z,10.5
2022-11-09T06:51:26.376Z,10.5
2022-11-09T06:52:34.727Z,10.5
2022-11-09T06:53:43.271Z,331.6
2022-11-09T06:54:51.636Z,331.6
2022-11-09T06:55:59.983Z,331.6
2022-11-09T06:57:08.525Z,102.69999
2022-11-09T06:58:16.868Z,102.69999
2022-11-09T06:59:25.194Z,102.69999
2022-11-09T07:00:33.789Z,84.5
2022-11-09T07:01:42.116Z,84.5
2022-11-09T07:02:50.430Z,84.5
2022-11-09T07:03:58.981Z,49.599998
2022-11-09T07:05:07.319Z,49.599998
2022-11-09T07:06:15.669Z,49.599998
2022-11-09T07:07:27.882Z,180.1
2022-11-09T07:08:32.556Z,180.1
2022-11-09T07:09:40.901Z,180.1
2022-11-09T07:10:49.446Z,206
2022-11-09T07:11:57.789Z,206
2022-11-09T07:13:06.136Z,206
2022-11-09T07:14:14.724Z,72.599998
2022-11-09T07:15:23.079Z,72.599998
2022-11-09T07:16:31.447Z,72.599998
2022-11-09T07:17:39.955Z,67.099998
2022-11-09T07:18:48.301Z,67.099998
2022-11-09T07:19:56.624Z,67.099998
2022-11-09T07:21:07.707Z,33.700001
2022-11-09T07:22:13.546Z,33.700001
2022-11-09T07:23:22.219Z,33.700001
2022-11-09T07:24:30.416Z,46.099998
2022-11-09T07:25:38.766Z,46.099998
2022-11-09T07:26:47.105Z,46.099998
2022-11-09T07:27:55.652Z,18.700001
2022-11-09T07:29:03.978Z,18.700001
2022-11-09T07:30:12.333Z,18.700001
2022-11-09T07:31:20.878Z,13.7
2022-11-09T07:32:54.082Z,13.7
2022-11-09T07:33:37.572Z,13.7
2022-11-09T07:34:46.110Z,9.2
2022-11-09T07:35:54.451Z,9.2
2022-11-09T07:37:02.780Z,9.2
2022-11-09T07:38:11.335Z,33.599998
2022-11-09T07:39:19.660Z,33.599998
2022-11-09T07:40:28.001Z,33.599998
2022-11-09T07:41:36.537Z,36.400002
2022-11-09T07:42:44.887Z,36.400002
2022-11-09T07:43:53.235Z,36.400002
2022-11-09T07:45:01.798Z,15.1
2022-11-09T07:46:10.166Z,15.1
2022-11-09T07:47:18.529Z,15.1
2022-11-09T07:48:27.100Z,8
2022-11-09T07:49:35.416Z,8
2022-11-09T07:50:43.774Z,8
2022-11-09T07:51:52.329Z,7.9
2022-11-09T07:53:00.665Z,7.9
2022-11-09T07:54:08.997Z,7.9
2022-11-09T07:55:17.564Z,9.4
2022-11-09T07:56:25.897Z,9.4
2022-11-09T07:57:34.231Z,9.4
2022-11-09T07:58:42.781Z,13
2022-11-09T07:59:51.124Z,13
2022-11-09T08:01:00.307Z,13
2022-11-09T08:02:09.355Z,9
2022-11-09T08:03:17.811Z,9
2022-11-09T08:04:26.020Z,9
2022-11-09T08:05:34.556Z,12.5
2022-11-09T08:06:42.986Z,12.5
2022-11-09T08:07:51.270Z,12.5
2022-11-09T08:08:59.861Z,8.8
2022-11-09T08:10:08.211Z,8.8
2022-11-09T08:11:16.546Z,8.8
2022-11-09T08:12:25.112Z,8.7
2022-11-09T08:13:33.445Z,8.7
2022-11-09T08:14:41.811Z,8.7
2022-11-09T08:15:50.359Z,9.2
2022-11-09T08:16:58.715Z,9.2
2022-11-09T08:18:07.053Z,9.2
2022-11-09T08:19:15.626Z,8.3
2022-11-09T08:20:23.997Z,8.3
2022-11-09T08:21:32.389Z,8.3
2022-11-09T08:22:40.934Z,8
2022-11-09T08:23:49.293Z,8
2022-11-09T08:24:57.633Z,8
2022-11-09T08:26:06.211Z,8.1
2022-11-09T08:27:14.579Z,8.1
2022-11-09T08:28:23.295Z,8.1
2022-11-09T08:29:31.469Z,7.6
2022-11-09T08:30:39.827Z,7.6
2022-11-09T08:31:48.180Z,7.6
2022-11-09T08:32:56.761Z,6.9
2022-11-09T08:34:05.121Z,6.9
2022-11-09T08:35:13.482Z,6.9
2022-11-09T08:36:22.058Z,7.8
2022-11-09T08:37:30.386Z,7.8
2022-11-09T08:38:38.741Z,7.8
2022-11-09T08:39:47.301Z,7.1
2022-11-09T08:40:55.682Z,7.1
2022-11-09T08:42:04.028Z,7.1
2022-11-09T08:43:12.577Z,7.6
2022-11-09T08:44:20.967Z,7.6
2022-11-09T08:45:29.320Z,7.6
2022-11-09T08:46:41.169Z,8.9
2022-11-09T08:47:46.222Z,8.9
2022-11-09T08:48:54.579Z,8.9
2022-11-09T08:50:03.135Z,8.4
2022-11-09T08:51:11.498Z,8.4
2022-11-09T08:52:19.864Z,8.4
2022-11-09T08:53:28.407Z,8.2
2022-11-09T08:54:36.762Z,8.2
2022-11-09T08:55:49.289Z,8.2
2022-11-09T08:56:53.641Z,8.4
2022-11-09T08:58:02.051Z,8.4
2022-11-09T08:59:10.399Z,8.4
2022-11-09T09:00:18.947Z,8.4
2022-11-09T09:01:27.348Z,8.4
2022-11-09T09:02:35.634Z,8.4
2022-11-09T09:03:44.185Z,7.3
2022-11-09T09:04:52.537Z,7.3
2022-11-09T09:06:00.882Z,7.3
2022-11-09T09:07:09.509Z,7.3
2022-11-09T09:08:17.979Z,7.3
2022-11-09T09:09:26.119Z,7.3
2022-11-09T09:10:34.688Z,8.3
2022-11-09T09:11:43.066Z,8.3
2022-11-09T09:12:51.411Z,8.3
2022-11-09T09:13:59.977Z,7.2
2022-11-09T09:15:08.351Z,7.2
2022-11-09T09:16:16.719Z,7.2
2022-11-09T09:17:25.346Z,55.200001
2022-11-09T09:18:33.688Z,55.200001
2022-11-09T09:19:44.843Z,55.200001
2022-11-09T09:20:50.568Z,26.6
2022-11-09T09:21:58.907Z,26.6
2022-11-09T09:23:07.263Z,26.6
2022-11-09T09:24:15.844Z,12.6
2022-11-09T09:25:24.156Z,12.6
2022-11-09T09:26:32.494Z,12.6
2022-11-09T09:27:41.067Z,12.8
2022-11-09T09:28:49.423Z,12.8
2022-11-09T09:29:57.766Z,12.8
2022-11-09T09:31:06.335Z,40.299999
2022-11-09T09:32:14.696Z,40.299999
2022-11-09T09:33:23.030Z,40.299999
2022-11-09T09:34:31.590Z,7.1
2022-11-09T09:35:39.938Z,7.1
2022-11-09T09:36:48.587Z,7.1
2022-11-09T09:37:56.820Z,7.2
2022-11-09T09:39:05.165Z,7.2
2022-11-09T09:40:13.525Z,7.2
2022-11-09T09:41:22.052Z,8.2
2022-11-09T09:42:30.385Z,8.2
2022-11-09T09:43:42.934Z,8.2
2022-11-09T09:44:47.272Z,9.6
2022-11-09T09:45:55.619Z,9.6
2022-11-09T09:47:03.949Z,9.6
2022-11-09T09:48:12.504Z,15
2022-11-09T09:49:20.839Z,15
2022-11-09T09:50:29.224Z,15
2022-11-09T09:51:37.725Z,7.6
2022-11-09T09:52:59.299Z,7.6
2022-11-09T09:53:54.410Z,7.6
2022-11-09T09:55:02.955Z,8.1
2022-11-09T09:56:11.310Z,8.1
2022-11-09T09:57:19.616Z,8.1
2022-11-09T09:58:28.173Z,6.5
2022-11-09T09:59:36.533Z,6.5
2022-11-09T10:00:44.863Z,6.5
2022-11-09T10:01:53.411Z,7.6
2022-11-09T10:03:01.757Z,7.6
2022-11-09T10:04:10.156Z,7.6
2022-11-09T10:05:18.633Z,8.5
2022-11-09T10:06:26.970Z,8.5
2022-11-09T10:07:35.313Z,8.5
2022-11-09T10:08:43.858Z,11.1
2022-11-09T10:09:52.192Z,11.1
2022-11-09T10:11:00.539Z,11.1
2022-11-09T10:12:09.097Z,8.6
2022-11-09T10:13:17.422Z,8.6
2022-11-09T10:14:25.749Z,8.6
2022-11-09T10:15:34.333Z,6.4
2022-11-09T10:16:42.666Z,6.4
2022-11-09T10:17:51.021Z,6.4
2022-11-09T10:18:59.565Z,8.6
2022-11-09T10:20:07.908Z,8.6
2022-11-09T10:21:16.256Z,8.6
2022-11-09T10:22:24.795Z,7
2022-11-09T10:23:33.126Z,7
2022-11-09T10:24:53.287Z,7
2022-11-09T10:26:03.429Z,5.6
2022-11-09T10:26:58.381Z,5.6
2022-11-09T10:28:12.738Z,5.6
2022-11-09T10:29:16.678Z,7.9
2022-11-09T10:30:23.637Z,7.9
2022-11-09T10:31:31.961Z,7.9
2022-11-09T10:32:40.514Z,6.2
2022-11-09T10:33:48.842Z,6.2
2022-11-09T10:34:57.178Z,6.2
2022-11-09T10:36:08.296Z,5.5
2022-11-09T10:37:14.050Z,5.5
2022-11-09T10:38:22.789Z,5.5
2022-11-09T10:39:30.941Z,4.9
2022-11-09T10:40:39.273Z,4.9
2022-11-09T10:41:47.615Z,4.9
2022-11-09T10:42:56.170Z,5.1
2022-11-09T10:44:04.597Z,5.1
2022-11-09T10:45:12.938Z,5.1
2022-11-09T10:46:21.482Z,4.9
2022-11-09T10:47:29.906Z,4.9
2022-11-09T10:48:38.268Z,4.9
2022-11-09T10:49:47.047Z,4.6
2022-11-09T10:50:55.457Z,4.6
2022-11-09T10:52:03.751Z,4.6
2022-11-09T10:53:12.327Z,4.3
2022-11-09T10:54:20.664Z,4.3
2022-11-09T10:55:29.002Z,4.3
2022-11-09T10:56:53.496Z,3.8
2022-11-09T10:57:45.874Z,3.8
2022-11-09T10:58:54.224Z,3.8
2022-11-09T11:00:02.803Z,3.8
2022-11-09T11:01:11.201Z,3.8
2022-11-09T11:02:19.548Z,3.8
2022-11-09T11:03:28.064Z,3.3
2022-11-09T11:04:36.432Z,3.3
2022-11-09T11:05:44.775Z,3.3
2022-11-09T11:06:53.439Z,3.1
2022-11-09T11:08:01.747Z,3.1
2022-11-09T11:09:10.096Z,3.1
2022-11-09T11:10:18.691Z,3.1
2022-11-09T11:11:35.949Z,3.1
2022-11-09T11:12:35.416Z,3.1
2022-11-09T11:13:43.983Z,3.2
2022-11-09T11:14:52.320Z,3.2
2022-11-09T11:16:00.677Z,3.2
2022-11-09T11:17:09.277Z,3.2
2022-11-09T11:18:17.611Z,3.2
2022-11-09T11:19:25.946Z,3.2
2022-11-09T11:20:34.484Z,3
2022-11-09T11:21:42.819Z,3
2022-11-09T11:22:51.159Z,3
2022-11-09T11:23:59.775Z,3.2
2022-11-09T11:25:08.133Z,3.2
2022-11-09T11:26:16.480Z,3.2
2022-11-09T11:27:25.020Z,3.2
2022-11-09T11:28:33.356Z,3.2
2022-11-09T11:29:41.807Z,3.2
2022-11-09T11:30:50.350Z,3.2
2022-11-09T11:31:58.747Z,3.2
2022-11-09T11:33:07.040Z,3.2
2022-11-09T11:34:26.742Z,3.2
2022-11-09T11:35:23.919Z,3.2
2022-11-09T11:36:32.260Z,3.2
2022-11-09T11:37:40.823Z,3.1
2022-11-09T11:38:49.165Z,3.1
2022-11-09T11:39:57.549Z,3.1
2022-11-09T11:41:06.121Z,2.8
2022-11-09T11:42:14.523Z,2.8
2022-11-09T11:43:23.141Z,2.8
2022-11-09T11:44:31.737Z,2.5
2022-11-09T11:45:41.760Z,2.5
2022-11-09T11:46:48.649Z,2.5
2022-11-09T11:47:57.279Z,2.4
2022-11-09T11:49:05.598Z,2.4
2022-11-09T11:50:14.173Z,2.4
2022-11-09T11:51:22.978Z,2.1
2022-11-09T11:52:31.432Z,2.1
2022-11-09T11:53:43.283Z,2.1
2022-11-09T11:54:48.456Z,2.2
2022-11-09T11:55:56.854Z,2.2
2022-11-09T11:57:05.390Z,2.2
2022-11-09T11:58:14.179Z,2.7
2022-11-09T11:59:22.473Z,2.7
2022-11-09T12:00:30.974Z,2.7
2022-11-09T12:01:39.722Z,3.3
2022-11-09T12:02:48.083Z,3.3
2022-11-09T12:03:56.534Z,3.3
2022-11-09T12:05:05.126Z,3.1
2022-11-09T12:06:13.595Z,3.1
2022-11-09T12:07:22.070Z,3.1
2022-11-09T12:08:30.756Z,3
2022-11-09T12:09:39.052Z,3
2022-11-09T12:10:47.531Z,3
2022-11-09T12:11:56.236Z,3.8
2022-11-09T12:13:04.604Z,3.8
2022-11-09T12:14:13.058Z,3.8
2022-11-09T12:15:21.850Z,3.7
2022-11-09T12:16:30.176Z,3.7
2022-11-09T12:17:38.604Z,3.7
2022-11-09T12:18:47.241Z,4.6
2022-11-09T12:19:55.658Z,4.6
2022-11-09T12:21:04.113Z,4.6
2022-11-09T12:22:12.725Z,3.9
2022-11-09T12:23:21.261Z,3.9
2022-11-09T12:24:29.571Z,3.9
2022-11-09T12:25:38.821Z,4.2
2022-11-09T12:26:52.320Z,4.2
2022-11-09T12:27:55.601Z,4.2
2022-11-09T12:29:04.187Z,3.5
2022-11-09T12:30:12.604Z,3.5
2022-11-09T12:31:20.971Z,3.5
2022-11-09T12:32:29.584Z,3.4
2022-11-09T12:33:42.060Z,3.4
2022-11-09T12:34:46.391Z,3.4
2022-11-09T12:35:55.072Z,4.3
2022-11-09T12:37:03.359Z,4.3
2022-11-09T12:38:11.703Z,4.3
2022-11-09T12:39:20.257Z,3.2
2022-11-09T12:40:28.617Z,3.2
2022-11-09T12:41:36.972Z,3.2
2022-11-09T12:42:45.519Z,3.5
2022-11-09T12:43:53.872Z,3.5
2022-11-09T12:45:02.224Z,3.5
2022-11-09T12:46:10.780Z,3.7
2022-11-09T12:47:19.128Z,3.7
2022-11-09T12:48:27.495Z,3.7
2022-11-09T12:49:36.035Z,2.9
2022-11-09T12:50:44.401Z,2.9
2022-11-09T12:51:56.654Z,2.9
2022-11-09T12:53:01.349Z,2.7
2022-11-09T12:54:09.698Z,2.7
2022-11-09T12:55:18.066Z,2.7
2022-11-09T12:56:26.618Z,3.3
2022-11-09T12:57:34.968Z,3.3
2022-11-09T12:58:43.324Z,3.3
2022-11-09T12:59:51.888Z,3.2
2022-11-09T13:01:00.241Z,3.2
2022-11-09T13:02:08.617Z,3.2
2022-11-09T13:03:17.275Z,2.7
2022-11-09T13:04:25.496Z,2.7
2022-11-09T13:05:33.861Z,2.7
2022-11-09T13:06:42.475Z,3
2022-11-09T13:07:50.789Z,3
2022-11-09T13:08:59.107Z,3
2022-11-09T13:10:07.675Z,3.5
2022-11-09T13:11:16.041Z,3.5
2022-11-09T13:12:24.380Z,3.5
2022-11-09T13:13:32.942Z,3.3
2022-11-09T13:14:41.291Z,3.3
2022-11-09T13:15:49.651Z,3.3
2022-11-09T13:16:58.224Z,3.2
2022-11-09T13:18:06.577Z,3.2
2022-11-09T13:19:14.941Z,3.2
2022-11-09T13:20:48.559Z,4.3
2022-11-09T13:21:31.848Z,4.3
2022-11-09T13:22:40.202Z,4.3
2022-11-09T13:24:06.825Z,3.4
2022-11-09T13:24:57.130Z,3.4
2022-11-09T13:26:05.482Z,3.4
2022-11-09T13:27:14.039Z,3.5
2022-11-09T13:28:22.395Z,3.5
2022-11-09T13:29:30.759Z,3.5
2022-11-09T13:30:39.339Z,3.5
2022-11-09T13:31:47.715Z,3.5
2022-11-09T13:32:56.073Z,3.5
2022-11-09T13:34:04.639Z,3.6
2022-11-09T13:35:12.997Z,3.6
2022-11-09T13:36:21.367Z,3.6
2022-11-09T13:37:29.942Z,3.5
2022-11-09T13:38:38.295Z,3.5
2022-11-09T13:39:46.703Z,3.5
2022-11-09T13:40:55.234Z,2.9
2022-11-09T13:42:03.592Z,2.9
2022-11-09T13:43:11.948Z,2.9
2022-11-09T13:44:20.545Z,3.2
2022-11-09T13:45:28.902Z,3.2
2022-11-09T13:46:37.274Z,3.2
2022-11-09T13:47:45.841Z,3.2
2022-11-09T13:48:54.200Z,3.2
2022-11-09T13:50:02.565Z,3.2
2022-11-09T13:51:11.131Z,3.3
2022-11-09T13:52:19.481Z,3.3
2022-11-09T13:53:27.829Z,3.3
2022-11-09T13:54:36.427Z,3.4
2022-11-09T13:55:44.811Z,3.4
2022-11-09T13:56:53.149Z,3.4
2022-11-09T13:58:01.728Z,3
2022-11-09T13:59:10.086Z,3
2022-11-09T14:00:18.454Z,3
2022-11-09T14:01:27.050Z,2.7
2022-11-09T14:02:35.369Z,2.7
2022-11-09T14:03:43.732Z,2.7
2022-11-09T14:04:52.306Z,3.5
2022-11-09T14:06:00.666Z,3.5
2022-11-09T14:07:09.066Z,3.5
2022-11-09T14:08:17.654Z,3
2022-11-09T14:09:25.961Z,3
2022-11-09T14:10:34.330Z,3
2022-11-09T14:11:42.919Z,2.7
2022-11-09T14:12:51.235Z,2.7
2022-11-09T14:14:03.069Z,2.7
2022-11-09T14:15:08.168Z,3.5
2022-11-09T14:16:16.515Z,3.5
2022-11-09T14:17:24.866Z,3.5
2022-11-09T14:18:33.442Z,3.6
2022-11-09T14:19:41.789Z,3.6
2022-11-09T14:20:50.141Z,3.6
2022-11-09T14:21:58.712Z,4.6
2022-11-09T14:23:07.072Z,4.6
2022-11-09T14:24:15.434Z,4.6
2022-11-09T14:25:24.029Z,2.8
2022-11-09T14:26:32.388Z,2.8
2022-11-09T14:27:40.777Z,2.8
2022-11-09T14:28:49.502Z,2.9
2022-11-09T14:29:57.877Z,2.9
2022-11-09T15:04:28.622Z,0
2022-11-09T15:05:36.679Z,0
2022-11-09T15:06:45.402Z,0
2022-11-09T15:07:53.612Z,3.1
2022-11-09T15:09:01.974Z,3.1
2022-11-09T15:10:10.383Z,3.1
2022-11-09T15:11:18.917Z,3.2
2022-11-09T15:12:27.291Z,3.2
2022-11-09T15:13:35.651Z,3.2
2022-11-09T15:14:44.206Z,2.7
2022-11-09T15:15:52.570Z,2.7
2022-11-09T15:17:00.933Z,2.7
2022-11-09T15:18:09.522Z,2.9
2022-11-09T15:19:17.863Z,2.9
2022-11-09T15:20:26.322Z,2.9
2022-11-09T15:21:34.788Z,2.8
2022-11-09T15:22:43.188Z,2.8
2022-11-09T15:23:51.530Z,2.8
2022-11-09T15:25:00.140Z,3.8
2022-11-09T15:26:08.465Z,3.8
2022-11-09T15:27:16.844Z,3.8
2022-11-09T15:28:25.462Z,3.3
2022-11-09T15:29:33.792Z,3.3
2022-11-09T15:30:45.772Z,3.3
2022-11-09T15:31:50.714Z,3.3
2022-11-09T15:32:59.109Z,3.3
2022-11-09T15:34:07.497Z,3.3
2022-11-09T15:35:16.048Z,4
2022-11-09T15:36:24.520Z,4
2022-11-09T15:37:32.765Z,4
2022-11-09T15:38:41.333Z,3.2
2022-11-09T15:39:49.676Z,3.2
2022-11-09T15:40:58.028Z,3.2
2022-11-09T15:42:06.596Z,3
2022-11-09T15:43:14.947Z,3
2022-11-09T15:44:23.303Z,3
2022-11-09T15:45:31.873Z,3.5
2022-11-09T15:46:40.214Z,3.5
2022-11-09T15:47:48.589Z,3.5
2022-11-09T15:48:57.139Z,3.1
2022-11-09T15:50:05.602Z,3.1
2022-11-09T15:51:13.852Z,3.1
2022-11-09T15:52:22.420Z,2.9
2022-11-09T15:53:30.761Z,2.9
2022-11-09T15:54:41.481Z,2.9
2022-11-09T15:55:47.721Z,2.5
2022-11-09T15:56:56.080Z,2.5
2022-11-09T15:58:04.441Z,2.5
2022-11-09T15:59:13.004Z,2.8
2022-11-09T16:00:21.477Z,2.8
2022-11-09T16:01:29.704Z,2.8
2022-11-09T16:02:38.252Z,2.5
2022-11-09T16:03:46.623Z,2.5
2022-11-09T16:04:54.976Z,2.5
2022-11-09T16:06:03.523Z,3
2022-11-09T16:07:11.885Z,3
2022-11-09T16:08:20.500Z,3
2022-11-09T16:09:28.783Z,3
2022-11-09T16:10:37.164Z,3
2022-11-09T16:11:45.524Z,3
2022-11-09T16:12:54.083Z,3.7